createdAt,value
2018-08-23T00:00:43.167Z,50.90
2018-08-23T00:03:46.859Z,54.60
2018-08-23T00:06:58.562Z,51.30
2018-08-23T00:10:03.340Z,51.07
2018-08-23T00:13:07.362Z,54.37
2018-08-23T00:16:11.054Z,52.90
2018-08-23T00:19:15.303Z,57.73
2018-08-23T00:22:24.242Z,55.70
2018-08-23T00:25:35.039Z,60.07
2018-08-23T00:28:38.841Z,52.10
2018-08-23T00:31:42.470Z,55.87
2018-08-23T00:34:46.099Z,57.57
2018-08-23T00:37:49.943Z,60.10
2018-08-23T00:40:53.528Z,62.53
2018-08-23T00:43:57.223Z,68.93
2018-08-23T00:47:00.772Z,60.13
2018-08-23T00:50:04.524Z,56.17
2018-08-23T00:53:08.109Z,62.30
2018-08-23T00:56:18.442Z,51.80
2018-08-23T00:59:22.014Z,57.77
2018-08-23T01:02:25.684Z,55.80
2018-08-23T01:05:35.963Z,51.87
2018-08-23T01:08:39.579Z,54.47
2018-08-23T01:11:45.697Z,59.00
2018-08-23T01:14:51.441Z,57.20
2018-08-23T01:18:14.314Z,59.47
2018-08-23T01:21:18.000Z,59.30
2018-08-23T01:24:21.844Z,57.03
2018-08-23T01:27:30.658Z,61.40
2018-08-23T01:30:34.558Z,59.27
2018-08-23T01:33:38.154Z,60.13
2018-08-23T01:36:42.363Z,57.50
2018-08-23T01:39:46.035Z,56.97
2018-08-23T01:42:49.643Z,56.30
2018-08-23T01:45:53.300Z,61.50
2018-08-23T01:48:56.945Z,57.47
2018-08-23T01:52:00.488Z,64.07
2018-08-23T01:55:04.109Z,61.37
2018-08-23T01:58:07.732Z,63.77
2018-08-23T02:01:13.962Z,66.53
2018-08-23T02:04:17.508Z,60.57
2018-08-23T02:07:21.095Z,59.20
2018-08-23T02:10:24.769Z,63.97
2018-08-23T02:13:29.098Z,70.37
2018-08-23T02:16:43.829Z,66.10
2018-08-23T02:19:49.238Z,70.90
2018-08-23T02:22:53.358Z,71.90
2018-08-23T02:25:56.939Z,72.57
2018-08-23T02:29:00.603Z,70.57
2018-08-23T02:32:05.509Z,72.13
2018-08-23T02:35:09.208Z,74.33
2018-08-23T02:38:12.882Z,79.87
2018-08-23T02:41:16.982Z,78.37
2018-08-23T02:44:20.640Z,72.97
2018-08-23T02:47:24.635Z,77.57
2018-08-23T02:50:28.216Z,75.67
2018-08-23T02:53:36.788Z,74.27
2018-08-23T02:56:41.095Z,79.80
2018-08-23T02:59:44.664Z,79.93
2018-08-23T03:02:48.490Z,84.40
2018-08-23T03:05:52.185Z,86.37
2018-08-23T03:08:55.849Z,88.43
2018-08-23T03:12:01.504Z,78.00
2018-08-23T03:15:06.456Z,85.40
2018-08-23T03:18:10.019Z,89.10
2018-08-23T03:21:13.648Z,79.20
2018-08-23T03:24:20.319Z,77.70
2018-08-23T03:27:23.891Z,80.50
2018-08-23T03:30:27.497Z,87.97
2018-08-23T03:33:32.759Z,84.27
2018-08-23T03:36:36.266Z,81.60
2018-08-23T03:39:39.850Z,86.30
2018-08-23T03:42:43.391Z,84.43
2018-08-23T03:45:46.951Z,92.13
2018-08-23T03:48:55.148Z,85.37
2018-08-23T03:51:59.180Z,88.93
2018-08-23T03:55:02.824Z,88.20
2018-08-23T03:58:06.440Z,87.90
2018-08-23T04:01:13.611Z,87.50
2018-08-23T04:04:17.164Z,92.30
2018-08-23T04:07:20.852Z,90.80
2018-08-23T04:10:25.049Z,91.93
2018-08-23T04:13:28.744Z,93.53
2018-08-23T04:16:32.709Z,100.60
2018-08-23T04:19:51.595Z,93.17
2018-08-23T04:22:56.253Z,93.37
2018-08-23T04:25:59.927Z,91.97
2018-08-23T04:29:03.476Z,94.87
2018-08-23T04:32:07.150Z,111.10
2018-08-23T04:35:13.431Z,88.30
2018-08-23T04:38:17.094Z,87.77
2018-08-23T04:41:20.650Z,95.57
2018-08-23T04:44:24.251Z,82.10
2018-08-23T04:47:27.814Z,80.70
2018-08-23T04:50:31.506Z,81.37
2018-08-23T04:53:35.272Z,78.00
2018-08-23T04:56:38.902Z,79.27
2018-08-23T04:59:42.515Z,76.87
2018-08-23T05:02:46.056Z,79.00
2018-08-23T05:05:49.591Z,78.10
2018-08-23T05:08:53.351Z,82.10
2018-08-23T05:11:57.010Z,85.50
2018-08-23T05:15:00.587Z,81.73
2018-08-23T05:18:04.158Z,79.50
2018-08-23T05:21:07.725Z,85.03
2018-08-23T05:24:12.686Z,84.73
2018-08-23T05:27:16.223Z,71.57
2018-08-23T05:30:19.844Z,71.50
2018-08-23T05:33:24.007Z,82.17
2018-08-23T05:36:27.582Z,72.80
2018-08-23T05:39:44.107Z,72.90
2018-08-23T05:42:54.203Z,77.60
2018-08-23T05:45:58.054Z,75.07
2018-08-23T05:49:01.597Z,83.87
2018-08-23T05:52:05.286Z,82.13
2018-08-23T05:55:08.892Z,77.40
2018-08-23T05:58:18.571Z,74.03
2018-08-23T06:01:22.194Z,85.60
2018-08-23T06:04:36.691Z,74.13
2018-08-23T06:07:40.321Z,70.10
2018-08-23T06:10:46.596Z,67.97
2018-08-23T06:13:50.190Z,67.90
2018-08-23T06:16:57.876Z,70.40
2018-08-23T06:20:01.616Z,59.83
2018-08-23T06:23:05.622Z,69.13
2018-08-23T06:26:09.287Z,64.67
2018-08-23T06:29:27.940Z,66.13
2018-08-23T06:32:31.608Z,73.23
2018-08-23T06:35:38.114Z,61.27
2018-08-23T06:38:46.025Z,60.67
2018-08-23T06:41:49.797Z,59.13
2018-08-23T06:44:54.604Z,55.73
2018-08-23T06:48:02.928Z,53.40
2018-08-23T06:51:10.749Z,58.10
2018-08-23T06:54:14.362Z,59.40
2018-08-23T06:57:17.993Z,54.73
2018-08-23T07:00:26.132Z,59.83
2018-08-23T07:03:30.697Z,57.20
2018-08-23T07:06:35.308Z,62.50
2018-08-23T07:09:41.766Z,58.83
2018-08-23T07:12:45.506Z,56.57
2018-08-23T07:15:53.314Z,62.80
2018-08-23T07:18:56.975Z,59.40
2018-08-23T07:22:02.458Z,62.23
2018-08-23T07:25:08.614Z,57.70
2018-08-23T07:28:12.352Z,59.40
2018-08-23T07:31:16.086Z,61.43
2018-08-23T07:34:19.782Z,64.50
2018-08-23T07:37:23.466Z,59.23
2018-08-23T07:40:27.132Z,63.50
2018-08-23T07:43:30.898Z,56.50
2018-08-23T07:46:34.497Z,56.87
2018-08-23T07:49:38.165Z,65.23
2018-08-23T07:52:46.064Z,62.53
2018-08-23T07:55:49.767Z,55.37
2018-08-23T07:58:54.673Z,57.00
2018-08-23T08:01:58.359Z,60.43
2018-08-23T08:05:02.305Z,63.50
2018-08-23T08:08:06.638Z,59.70
2018-08-23T08:11:10.257Z,67.87
2018-08-23T08:14:19.077Z,62.77
2018-08-23T08:17:31.194Z,62.47
2018-08-23T08:20:35.286Z,57.00
2018-08-23T08:23:39.048Z,60.73
2018-08-23T08:26:42.765Z,61.00
2018-08-23T08:29:46.388Z,58.80
2018-08-23T08:32:50.081Z,59.33
2018-08-23T08:36:00.344Z,62.47
2018-08-23T08:39:04.966Z,60.60
2018-08-23T08:42:08.661Z,61.10
2018-08-23T08:45:13.484Z,55.93
2018-08-23T08:48:22.419Z,59.90
2018-08-23T08:51:29.643Z,58.90
2018-08-23T08:54:33.239Z,63.17
2018-08-23T08:57:40.402Z,62.13
2018-08-23T09:00:51.557Z,73.40
2018-08-23T09:03:55.163Z,67.63
2018-08-23T09:06:58.855Z,67.40
2018-08-23T09:10:02.636Z,72.77
2018-08-23T09:13:06.576Z,69.13
2018-08-23T09:16:11.323Z,65.23
2018-08-23T09:19:15.044Z,68.27
2018-08-23T09:22:19.509Z,69.73
2018-08-23T09:25:27.450Z,72.23
2018-08-23T09:28:31.139Z,64.30
2018-08-23T09:31:34.887Z,74.27
2018-08-23T09:34:39.704Z,72.27
2018-08-23T09:37:43.434Z,74.57
2018-08-23T09:40:47.264Z,73.70
2018-08-23T09:43:51.036Z,70.47
2018-08-23T09:46:59.014Z,69.67
2018-08-23T09:50:02.869Z,69.27
2018-08-23T09:53:14.241Z,73.00
2018-08-23T09:56:23.026Z,69.87
2018-08-23T09:59:27.946Z,69.90
2018-08-23T10:02:37.075Z,65.93
2018-08-23T10:05:48.038Z,66.97
2018-08-23T10:09:03.206Z,63.63
2018-08-23T10:12:12.081Z,70.23
2018-08-23T10:15:21.306Z,68.13
2018-08-23T10:18:30.150Z,69.77
2018-08-23T10:23:42.352Z,72.20
2018-08-23T10:26:46.398Z,70.70
2018-08-23T10:29:50.135Z,64.20
2018-08-23T10:32:54.025Z,59.87
2018-08-23T10:35:57.859Z,70.73
2018-08-23T10:39:01.532Z,70.00
2018-08-23T10:42:09.282Z,68.17
2018-08-23T10:45:13.421Z,65.23
2018-08-23T10:48:18.291Z,60.80
2018-08-23T10:51:22.018Z,67.93
2018-08-23T10:54:25.641Z,58.40
2018-08-23T10:57:29.204Z,63.43
2018-08-23T11:00:32.862Z,54.03
2018-08-23T11:03:36.623Z,59.87
2018-08-23T11:06:45.356Z,54.30
2018-08-23T11:09:54.208Z,52.10
2018-08-23T11:13:02.764Z,49.77
2018-08-23T11:16:11.618Z,52.73
2018-08-23T11:19:20.489Z,58.77
2018-08-23T11:22:28.365Z,64.90
2018-08-23T11:25:31.991Z,56.90
2018-08-23T11:28:35.610Z,50.13
2018-08-23T11:31:39.275Z,66.70
2018-08-23T11:34:42.930Z,51.57
2018-08-23T11:37:46.556Z,58.93
2018-08-23T11:40:50.331Z,46.57
2018-08-23T11:43:54.015Z,52.70
2018-08-23T11:46:57.721Z,57.53
2018-08-23T11:50:01.713Z,47.63
2018-08-23T11:53:05.764Z,55.20
2018-08-23T11:56:09.769Z,52.20
2018-08-23T11:59:13.648Z,52.50
2018-08-23T12:02:17.146Z,47.30
2018-08-23T12:05:20.929Z,46.00
2018-08-23T12:08:24.696Z,37.57
2018-08-23T12:11:28.375Z,35.97
2018-08-23T12:14:32.118Z,34.27
2018-08-23T12:17:35.840Z,35.50
2018-08-23T12:20:39.596Z,35.00
2018-08-23T12:23:43.376Z,40.27
2018-08-23T12:26:47.077Z,26.00
2018-08-23T12:29:51.126Z,26.10
2018-08-23T12:32:55.000Z,22.47
2018-08-23T12:35:58.704Z,20.33
2018-08-23T12:39:07.672Z,18.90
2018-08-23T12:42:16.657Z,21.07
2018-08-23T12:45:20.517Z,20.83
2018-08-23T12:48:24.301Z,29.00
2018-08-23T12:51:27.983Z,21.00
2018-08-23T12:54:31.611Z,18.00
2018-08-23T12:57:35.300Z,24.13
2018-08-23T13:00:39.993Z,19.10
2018-08-23T13:03:43.626Z,20.13
2018-08-23T13:06:47.269Z,18.73
2018-08-23T13:09:50.956Z,17.90
2018-08-23T13:12:54.591Z,16.03
2018-08-23T13:15:58.396Z,18.47
2018-08-23T13:19:02.099Z,19.33
2018-08-23T13:22:06.033Z,19.00
2018-08-23T13:25:11.516Z,19.83
2018-08-23T13:28:15.349Z,18.93
2018-08-23T13:31:19.036Z,21.43
2018-08-23T13:34:22.752Z,22.63
2018-08-23T13:37:26.790Z,20.57
2018-08-23T13:40:30.477Z,25.50
2018-08-23T13:43:34.280Z,21.47
2018-08-23T13:46:38.079Z,19.90
2018-08-23T13:49:41.759Z,19.53
2018-08-23T13:52:45.558Z,24.63
2018-08-23T13:55:49.248Z,22.80
2018-08-23T13:58:53.602Z,19.77
2018-08-23T14:01:57.266Z,26.97
2018-08-23T14:05:00.898Z,22.77
2018-08-23T14:08:04.556Z,27.13
2018-08-23T14:11:08.357Z,23.73
2018-08-23T14:14:12.002Z,22.27
2018-08-23T14:17:15.718Z,20.23
2018-08-23T14:20:19.573Z,22.30
2018-08-23T14:23:23.289Z,20.93
2018-08-23T14:26:26.911Z,22.90
2018-08-23T14:29:30.643Z,20.17
2018-08-23T14:32:34.496Z,22.10
2018-08-23T14:35:38.257Z,25.57
2018-08-23T14:38:41.942Z,24.60
2018-08-23T14:41:45.873Z,27.30
2018-08-23T14:44:49.478Z,24.50
2018-08-23T14:47:58.346Z,24.97
2018-08-23T14:51:02.246Z,24.47
2018-08-23T14:54:11.178Z,29.30
2018-08-23T14:57:20.114Z,26.17
2018-08-23T15:00:23.745Z,24.93
2018-08-23T15:03:27.597Z,25.87
2018-08-23T15:06:31.452Z,24.17
2018-08-23T15:09:35.157Z,22.97
2018-08-23T15:12:38.889Z,23.37
2018-08-23T15:15:49.613Z,23.60
2018-08-23T15:18:53.267Z,28.07
2018-08-23T15:21:56.963Z,23.10
2018-08-23T15:25:00.629Z,21.67
2018-08-23T15:28:04.338Z,20.87
2018-08-23T15:31:08.041Z,19.93
2018-08-23T15:34:12.004Z,23.33
2018-08-23T15:37:15.735Z,20.80
2018-08-23T15:40:19.433Z,18.27
2018-08-23T15:43:24.119Z,17.83
2018-08-23T15:46:31.947Z,18.67
2018-08-23T15:49:35.672Z,18.10
2018-08-23T15:52:39.423Z,19.27
2018-08-23T15:55:43.229Z,19.60
2018-08-23T15:58:46.898Z,15.73
2018-08-23T16:01:50.551Z,14.97
2018-08-23T16:04:54.325Z,14.83
2018-08-23T16:07:58.042Z,15.77
2018-08-23T16:11:01.720Z,14.00
2018-08-23T16:14:05.513Z,14.20
2018-08-23T16:17:14.375Z,13.30
2018-08-23T16:20:23.251Z,14.37
2018-08-23T16:23:27.018Z,13.57
2018-08-23T16:26:35.943Z,13.93
2018-08-23T16:29:39.683Z,13.67
2018-08-23T16:32:43.393Z,17.37
2018-08-23T16:35:47.014Z,14.60
2018-08-23T16:38:50.691Z,13.37
2018-08-23T16:41:54.462Z,13.53
2018-08-23T16:44:58.141Z,13.30
2018-08-23T16:48:01.918Z,13.10
2018-08-23T16:51:05.612Z,12.60
2018-08-23T16:54:09.428Z,13.03
2018-08-23T16:57:13.038Z,13.17
2018-08-23T17:00:16.798Z,13.80
2018-08-23T17:03:20.510Z,12.40
2018-08-23T17:06:25.704Z,13.57
2018-08-23T17:09:29.334Z,12.73
2018-08-23T17:12:33.057Z,15.47
2018-08-23T17:15:41.928Z,15.57
2018-08-23T17:18:45.756Z,13.73
2018-08-23T17:21:49.366Z,14.33
2018-08-23T17:24:53.240Z,13.60
2018-08-23T17:27:56.884Z,12.97
2018-08-23T17:31:00.910Z,15.03
2018-08-23T17:34:04.600Z,12.90
2018-08-23T17:37:08.419Z,15.67
2018-08-23T17:40:12.323Z,16.50
2018-08-23T17:43:16.053Z,13.53
2018-08-23T17:46:19.748Z,13.97
2018-08-23T17:49:23.437Z,12.30
2018-08-23T17:52:27.406Z,13.93
2018-08-23T17:55:31.218Z,13.83
2018-08-23T17:58:34.965Z,14.53
2018-08-23T18:01:38.890Z,13.67
2018-08-23T18:04:42.753Z,15.07
2018-08-23T18:07:46.452Z,13.20
2018-08-23T18:10:50.224Z,14.60
2018-08-23T18:13:53.955Z,15.47
2018-08-23T18:17:00.965Z,13.67
2018-08-23T18:20:04.941Z,13.30
2018-08-23T18:23:08.693Z,14.53
2018-08-23T18:26:12.569Z,13.33
2018-08-23T18:29:16.381Z,13.20
2018-08-23T18:32:20.099Z,10.50
2018-08-23T18:35:23.914Z,12.47
2018-08-23T18:38:27.750Z,13.17
2018-08-23T18:41:31.438Z,14.80
2018-08-23T18:44:35.160Z,11.87
2018-08-23T18:47:38.924Z,15.33
2018-08-23T18:50:42.590Z,14.47
2018-08-23T18:53:46.264Z,12.50
2018-08-23T18:56:49.940Z,13.23
2018-08-23T18:59:53.715Z,13.67
2018-08-23T19:02:57.469Z,13.20
2018-08-23T19:06:01.233Z,14.03
2018-08-23T19:09:08.438Z,17.23
2018-08-23T19:12:12.265Z,18.37
2018-08-23T19:15:20.490Z,15.10
2018-08-23T19:18:24.412Z,12.10
2018-08-23T19:21:28.126Z,14.07
2018-08-23T19:24:31.908Z,12.27
2018-08-23T19:27:35.800Z,12.37
2018-08-23T19:30:39.609Z,15.50
2018-08-23T19:33:43.460Z,17.50
2018-08-23T19:36:47.648Z,17.87
2018-08-23T19:39:51.631Z,16.03
2018-08-23T19:42:55.398Z,18.00
2018-08-23T19:46:06.028Z,19.30
2018-08-23T19:49:14.927Z,16.03
2018-08-23T19:52:18.862Z,16.17
2018-08-23T19:55:22.761Z,19.70
2018-08-23T19:58:26.676Z,18.23
2018-08-23T20:01:30.469Z,15.97
2018-08-23T20:04:34.248Z,16.30
2018-08-23T20:07:38.856Z,14.53
2018-08-23T20:10:42.681Z,17.50
2018-08-23T20:13:46.436Z,16.77
2018-08-23T20:16:50.235Z,22.73
2018-08-23T20:19:54.040Z,18.70
2018-08-23T20:22:57.815Z,18.23
2018-08-23T20:26:01.667Z,19.80
2018-08-23T20:29:05.738Z,19.40
2018-08-23T20:32:09.591Z,18.17
2018-08-23T20:35:13.292Z,22.13
2018-08-23T20:38:17.106Z,23.17
2018-08-23T20:41:20.871Z,20.40
2018-08-23T20:44:24.754Z,21.60
2018-08-23T20:47:28.521Z,24.83
2018-08-23T20:50:32.210Z,21.67
2018-08-23T20:53:36.167Z,21.77
2018-08-23T20:56:39.850Z,23.73
2018-08-23T20:59:43.642Z,23.10
2018-08-23T21:02:47.387Z,24.00
2018-08-23T21:05:51.069Z,22.90
2018-08-23T21:08:54.912Z,23.00
2018-08-23T21:11:58.647Z,22.10
2018-08-23T21:15:02.535Z,24.00
2018-08-23T21:18:08.748Z,23.30
2018-08-23T21:21:12.392Z,26.17
2018-08-23T21:24:16.180Z,24.77
2018-08-23T21:27:19.880Z,26.00
2018-08-23T21:30:23.620Z,23.43
2018-08-23T21:33:27.542Z,22.87
2018-08-23T21:36:31.340Z,27.10
2018-08-23T21:39:35.125Z,23.80
2018-08-23T21:42:38.960Z,23.20
2018-08-23T21:45:42.718Z,26.70
2018-08-23T21:48:46.531Z,25.70
2018-08-23T21:51:50.360Z,23.23
2018-08-23T21:54:54.044Z,18.93
2018-08-23T21:57:57.779Z,17.87
2018-08-23T22:01:09.729Z,24.80
2018-08-23T22:04:13.396Z,17.40
2018-08-23T22:07:17.277Z,19.03
2018-08-23T22:10:21.015Z,21.47
2018-08-23T22:13:24.699Z,24.40
2018-08-23T22:16:28.405Z,23.87
2018-08-23T22:19:32.247Z,22.60
2018-08-23T22:22:35.990Z,23.10
2018-08-23T22:25:40.258Z,23.37
2018-08-23T22:28:43.867Z,24.93
2018-08-23T22:31:47.562Z,29.57
2018-08-23T22:34:51.426Z,26.80
2018-08-23T22:37:55.292Z,24.67
2018-08-23T22:40:59.031Z,24.60
2018-08-23T22:44:02.888Z,22.40
2018-08-23T22:47:06.792Z,27.47
2018-08-23T22:50:10.597Z,23.80
2018-08-23T22:53:14.253Z,24.10
2018-08-23T22:56:17.827Z,26.13
2018-08-23T22:59:21.565Z,23.80
2018-08-23T23:02:30.404Z,24.63
2018-08-23T23:05:34.025Z,25.33
2018-08-23T23:08:37.696Z,22.30
2018-08-23T23:11:41.572Z,26.10
2018-08-23T23:14:45.188Z,22.17
2018-08-23T23:17:49.004Z,21.33
2018-08-23T23:20:52.626Z,28.23
2018-08-23T23:23:56.247Z,23.03
2018-08-23T23:26:59.845Z,22.37
2018-08-23T23:30:03.650Z,22.13
2018-08-23T23:33:07.230Z,22.67
2018-08-23T23:36:11.097Z,22.90
2018-08-23T23:39:14.973Z,22.90
2018-08-23T23:42:18.622Z,19.53
2018-08-23T23:45:22.243Z,23.70
2018-08-23T23:48:25.850Z,21.77
2018-08-23T23:51:29.655Z,22.53
2018-08-23T23:54:33.277Z,22.27
2018-08-23T23:57:37.073Z,20.53
